This is the latest recevied weather packets stored in our database for station/object KB1QVF. If no packets are shown the sender has not sent any weather packets the latest 10 day(s).
| Time | Temp. | Humidity | Pressure | Rain* | Wind** | Luminosity | Snow |
|---|---|---|---|---|---|---|---|
| 1777660922 | 15.56° C | 34% | 1011.4 hPa | 0 mm | - | 741 W/m² | - |
| 1777660619 | 15.56° C | 34% | 1011.6 hPa | 0 mm | - | 749 W/m² | - |
| 1777660316 | 15° C | 34% | 1011.5 hPa | 0 mm | - | 769 W/m² | - |
| 1777660012 | 15.56° C | 34% | 1011.6 hPa | 0 mm | - | 787 W/m² | - |
| 1777659709 | 15° C | 38% | 1011.6 hPa | 0 mm | - | 786 W/m² | - |
| 1777659406 | 15° C | 37% | 1011.7 hPa | 0 mm | - | 788 W/m² | - |
| 1777659103 | 14.44° C | 38% | 1011.6 hPa | 0 mm | - | 792 W/m² | - |
| 1777658802 | 15° C | 39% | 1011.4 hPa | 0 mm | - | 785 W/m² | - |
| 1777658497 | 14.44° C | 39% | 1011.7 hPa | 0 mm | - | 818 W/m² | - |
| 1777658194 | 13.89° C | 41% | 1011.9 hPa | 0 mm | - | 838 W/m² | - |
| 1777657891 | 13.89° C | 39% | 1011.9 hPa | 0 mm | - | 875 W/m² | - |
| 1777657588 | 13.89° C | 40% | 1011.9 hPa | 0 mm | - | 268 W/m² | - |
| 1777657286 | 14.44° C | 42% | 1011.8 hPa | 0 mm | - | 890 W/m² | - |
| 1777656983 | 13.89° C | 41% | 1011.7 hPa | 0 mm | - | 915 W/m² | - |
| 1777656679 | 13.89° C | 41% | 1012 hPa | 0 mm | - | 900 W/m² | - |
| 1777656375 | 13.89° C | 46% | 1011.9 hPa | 0 mm | - | 894 W/m² | - |
| 1777656070 | 13.89° C | 42% | 1012 hPa | 0 mm | - | 299 W/m² | - |
| 1777655767 | 13.89° C | 43% | 1011.7 hPa | 0 mm | - | 202 W/m² | - |
| 1777655464 | 12.78° C | 45% | 1012 hPa | 0 mm | - | 894 W/m² | - |
| 1777655161 | 13.89° C | 43% | 1012 hPa | 0 mm | - | 327 W/m² | - |
| 1777654857 | 13.33° C | 46% | 1012 hPa | 0 mm | - | 841 W/m² | - |
| 1777654555 | 13.33° C | 45% | 1012.2 hPa | 0 mm | - | 837 W/m² | - |
| 1777654252 | 12.78° C | 51% | 1012.1 hPa | 0 mm | - | 923 W/m² | - |
| 1777653950 | 12.78° C | 47% | 1012.2 hPa | 0 mm | - | 351 W/m² | - |
| 1777653647 | 12.78° C | 50% | 1012.3 hPa | 0 mm | - | 910 W/m² | - |
* Rain latest hour (hover to see other rain measurements)
** Current wind speed in m/s (hover to see current wind gust speed)